sensor_id;sensor_type;location;lat;lon;timestamp;P1;durP1;ratioP1;P2;durP2;ratioP2
3949;SDS011;53057;50.988;6.314;2023-02-23T00:01:36;228.83;;;107.10;;
3949;SDS011;53057;50.988;6.314;2023-02-23T00:04:02;209.63;;;104.33;;
3949;SDS011;53057;50.988;6.314;2023-02-23T00:06:29;211.50;;;101.10;;
3949;SDS011;53057;50.988;6.314;2023-02-23T00:08:56;224.67;;;101.43;;
3949;SDS011;53057;50.988;6.314;2023-02-23T00:11:26;237.97;;;111.10;;
3949;SDS011;53057;50.988;6.314;2023-02-23T00:13:53;244.03;;;106.97;;
3949;SDS011;53057;50.988;6.314;2023-02-23T00:16:22;246.13;;;108.07;;
3949;SDS011;53057;50.988;6.314;2023-02-23T00:18:50;245.17;;;107.77;;
3949;SDS011;53057;50.988;6.314;2023-02-23T00:21:20;230.47;;;104.00;;
3949;SDS011;53057;50.988;6.314;2023-02-23T00:23:48;244.70;;;110.83;;
3949;SDS011;53057;50.988;6.314;2023-02-23T00:26:14;252.37;;;109.20;;
3949;SDS011;53057;50.988;6.314;2023-02-23T00:28:41;249.10;;;111.97;;
3949;SDS011;53057;50.988;6.314;2023-02-23T00:31:09;231.30;;;105.17;;
3949;SDS011;53057;50.988;6.314;2023-02-23T00:33:37;257.53;;;110.63;;
3949;SDS011;53057;50.988;6.314;2023-02-23T00:36:06;245.17;;;111.77;;
3949;SDS011;53057;50.988;6.314;2023-02-23T00:38:34;301.33;;;117.57;;
3949;SDS011;53057;50.988;6.314;2023-02-23T00:41:05;274.63;;;114.87;;
3949;SDS011;53057;50.988;6.314;2023-02-23T00:43:33;258.47;;;114.67;;
3949;SDS011;53057;50.988;6.314;2023-02-23T00:46:00;297.47;;;119.97;;
3949;SDS011;53057;50.988;6.314;2023-02-23T00:48:31;350.40;;;132.10;;
3949;SDS011;53057;50.988;6.314;2023-02-23T00:50:59;308.93;;;130.60;;
3949;SDS011;53057;50.988;6.314;2023-02-23T00:53:26;307.50;;;121.07;;
3949;SDS011;53057;50.988;6.314;2023-02-23T00:55:53;341.57;;;130.67;;
3949;SDS011;53057;50.988;6.314;2023-02-23T00:58:19;309.40;;;124.07;;
3949;SDS011;53057;50.988;6.314;2023-02-23T01:00:46;313.80;;;126.10;;
3949;SDS011;53057;50.988;6.314;2023-02-23T01:03:12;273.13;;;116.20;;
3949;SDS011;53057;50.988;6.314;2023-02-23T01:05:39;264.73;;;114.90;;
3949;SDS011;53057;50.988;6.314;2023-02-23T01:08:06;269.53;;;114.87;;
3949;SDS011;53057;50.988;6.314;2023-02-23T01:10:39;263.47;;;115.93;;
3949;SDS011;53057;50.988;6.314;2023-02-23T01:13:08;330.37;;;127.43;;
3949;SDS011;53057;50.988;6.314;2023-02-23T01:15:40;345.23;;;126.93;;
3949;SDS011;53057;50.988;6.314;2023-02-23T01:18:08;407.70;;;135.87;;
3949;SDS011;53057;50.988;6.314;2023-02-23T01:20:36;357.53;;;134.97;;
3949;SDS011;53057;50.988;6.314;2023-02-23T01:23:03;367.13;;;134.13;;
3949;SDS011;53057;50.988;6.314;2023-02-23T01:25:31;302.20;;;129.03;;
3949;SDS011;53057;50.988;6.314;2023-02-23T01:27:58;380.90;;;142.83;;
3949;SDS011;53057;50.988;6.314;2023-02-23T01:30:25;421.10;;;148.10;;
3949;SDS011;53057;50.988;6.314;2023-02-23T01:32:52;393.57;;;142.17;;
3949;SDS011;53057;50.988;6.314;2023-02-23T01:35:20;351.23;;;130.63;;
3949;SDS011;53057;50.988;6.314;2023-02-23T01:37:48;347.13;;;139.90;;
3949;SDS011;53057;50.988;6.314;2023-02-23T01:40:16;303.17;;;123.30;;
3949;SDS011;53057;50.988;6.314;2023-02-23T01:45:24;369.43;;;136.60;;
3949;SDS011;53057;50.988;6.314;2023-02-23T01:47:52;407.87;;;142.53;;
3949;SDS011;53057;50.988;6.314;2023-02-23T01:50:20;323.37;;;125.60;;
3949;SDS011;53057;50.988;6.314;2023-02-23T01:52:48;339.87;;;129.57;;
3949;SDS011;53057;50.988;6.314;2023-02-23T01:55:16;394.10;;;137.80;;
3949;SDS011;53057;50.988;6.314;2023-02-23T01:57:50;421.20;;;148.67;;
3949;SDS011;53057;50.988;6.314;2023-02-23T02:00:18;359.60;;;131.13;;
3949;SDS011;53057;50.988;6.314;2023-02-23T02:02:46;385.47;;;135.83;;
3949;SDS011;53057;50.988;6.314;2023-02-23T02:05:14;382.70;;;140.53;;
3949;SDS011;53057;50.988;6.314;2023-02-23T02:07:48;416.07;;;143.17;;
3949;SDS011;53057;50.988;6.314;2023-02-23T02:10:17;412.17;;;147.00;;
3949;SDS011;53057;50.988;6.314;2023-02-23T02:13:04;410.83;;;138.63;;
3949;SDS011;53057;50.988;6.314;2023-02-23T02:15:32;410.60;;;143.97;;
3949;SDS011;53057;50.988;6.314;2023-02-23T02:18:14;404.30;;;147.93;;
3949;SDS011;53057;50.988;6.314;2023-02-23T02:41:16;401.10;;;134.63;;
3949;SDS011;53057;50.988;6.314;2023-02-23T02:43:59;455.67;;;143.43;;
3949;SDS011;53057;50.988;6.314;2023-02-23T02:46:34;455.37;;;146.47;;
3949;SDS011;53057;50.988;6.314;2023-02-23T02:49:06;438.90;;;143.00;;
3949;SDS011;53057;50.988;6.314;2023-02-23T02:51:45;457.37;;;148.57;;
3949;SDS011;53057;50.988;6.314;2023-02-23T02:56:47;450.53;;;145.40;;
3949;SDS011;53057;50.988;6.314;2023-02-23T02:59:17;453.30;;;146.17;;
3949;SDS011;53057;50.988;6.314;2023-02-23T03:02:03;457.57;;;147.43;;
3949;SDS011;53057;50.988;6.314;2023-02-23T03:04:49;503.00;;;167.17;;
3949;SDS011;53057;50.988;6.314;2023-02-23T03:07:42;440.50;;;147.70;;
3949;SDS011;53057;50.988;6.314;2023-02-23T03:19:13;436.20;;;144.73;;
3949;SDS011;53057;50.988;6.314;2023-02-23T03:24:56;414.93;;;145.87;;
3949;SDS011;53057;50.988;6.314;2023-02-23T03:27:53;443.10;;;145.27;;
3949;SDS011;53057;50.988;6.314;2023-02-23T03:33:29;481.47;;;147.17;;
3949;SDS011;53057;50.988;6.314;2023-02-23T03:36:20;449.60;;;146.07;;
3949;SDS011;53057;50.988;6.314;2023-02-23T03:39:18;450.50;;;140.97;;
3949;SDS011;53057;50.988;6.314;2023-02-23T03:42:07;384.13;;;128.23;;
3949;SDS011;53057;50.988;6.314;2023-02-23T03:44:54;474.80;;;147.73;;
3949;SDS011;53057;50.988;6.314;2023-02-23T03:47:40;422.53;;;141.60;;
3949;SDS011;53057;50.988;6.314;2023-02-23T03:50:29;537.93;;;160.13;;
3949;SDS011;53057;50.988;6.314;2023-02-23T03:53:16;474.40;;;146.43;;
3949;SDS011;53057;50.988;6.314;2023-02-23T03:56:04;479.80;;;151.57;;
3949;SDS011;53057;50.988;6.314;2023-02-23T03:58:50;421.20;;;144.07;;
3949;SDS011;53057;50.988;6.314;2023-02-23T04:01:38;512.43;;;158.63;;
3949;SDS011;53057;50.988;6.314;2023-02-23T04:04:24;477.60;;;156.37;;
3949;SDS011;53057;50.988;6.314;2023-02-23T04:07:12;495.60;;;157.73;;
3949;SDS011;53057;50.988;6.314;2023-02-23T04:10:00;430.23;;;147.80;;
3949;SDS011;53057;50.988;6.314;2023-02-23T04:12:51;522.27;;;160.03;;
3949;SDS011;53057;50.988;6.314;2023-02-23T04:18:07;412.27;;;144.97;;
3949;SDS011;53057;50.988;6.314;2023-02-23T04:20:36;450.73;;;150.27;;
3949;SDS011;53057;50.988;6.314;2023-02-23T04:23:03;424.53;;;144.27;;
3949;SDS011;53057;50.988;6.314;2023-02-23T04:25:30;539.77;;;163.17;;
3949;SDS011;53057;50.988;6.314;2023-02-23T04:27:56;453.30;;;149.40;;
3949;SDS011;53057;50.988;6.314;2023-02-23T04:30:23;475.80;;;156.40;;
3949;SDS011;53057;50.988;6.314;2023-02-23T04:32:51;528.63;;;162.93;;
3949;SDS011;53057;50.988;6.314;2023-02-23T04:35:17;556.57;;;167.70;;
3949;SDS011;53057;50.988;6.314;2023-02-23T04:37:44;512.10;;;158.33;;
3949;SDS011;53057;50.988;6.314;2023-02-23T04:40:11;567.60;;;169.73;;
3949;SDS011;53057;50.988;6.314;2023-02-23T04:42:38;543.23;;;171.17;;
3949;SDS011;53057;50.988;6.314;2023-02-23T04:45:05;485.20;;;156.40;;
3949;SDS011;53057;50.988;6.314;2023-02-23T04:47:32;520.53;;;162.13;;
3949;SDS011;53057;50.988;6.314;2023-02-23T04:49:59;485.40;;;151.53;;
3949;SDS011;53057;50.988;6.314;2023-02-23T04:52:25;541.47;;;165.23;;
3949;SDS011;53057;50.988;6.314;2023-02-23T04:54:52;563.07;;;168.87;;
3949;SDS011;53057;50.988;6.314;2023-02-23T04:57:18;539.00;;;162.20;;
3949;SDS011;53057;50.988;6.314;2023-02-23T04:59:45;605.20;;;179.80;;
3949;SDS011;53057;50.988;6.314;2023-02-23T05:02:11;564.03;;;160.23;;
3949;SDS011;53057;50.988;6.314;2023-02-23T05:04:38;573.20;;;164.70;;
3949;SDS011;53057;50.988;6.314;2023-02-23T05:07:04;646.43;;;185.70;;
3949;SDS011;53057;50.988;6.314;2023-02-23T05:09:31;590.90;;;175.90;;
3949;SDS011;53057;50.988;6.314;2023-02-23T05:11:58;547.33;;;169.80;;
3949;SDS011;53057;50.988;6.314;2023-02-23T05:14:25;586.50;;;172.47;;
3949;SDS011;53057;50.988;6.314;2023-02-23T05:16:52;565.20;;;169.67;;
3949;SDS011;53057;50.988;6.314;2023-02-23T05:19:19;587.87;;;175.80;;
3949;SDS011;53057;50.988;6.314;2023-02-23T05:21:45;609.70;;;180.07;;
3949;SDS011;53057;50.988;6.314;2023-02-23T05:24:12;613.57;;;175.57;;
3949;SDS011;53057;50.988;6.314;2023-02-23T05:26:38;557.50;;;170.07;;
3949;SDS011;53057;50.988;6.314;2023-02-23T05:29:05;620.80;;;181.90;;
3949;SDS011;53057;50.988;6.314;2023-02-23T05:31:32;523.23;;;164.83;;
3949;SDS011;53057;50.988;6.314;2023-02-23T05:33:59;499.13;;;157.77;;
3949;SDS011;53057;50.988;6.314;2023-02-23T05:36:26;488.10;;;152.97;;
3949;SDS011;53057;50.988;6.314;2023-02-23T05:38:52;485.20;;;150.77;;
3949;SDS011;53057;50.988;6.314;2023-02-23T05:41:20;481.53;;;156.17;;
3949;SDS011;53057;50.988;6.314;2023-02-23T05:43:48;481.50;;;156.03;;
3949;SDS011;53057;50.988;6.314;2023-02-23T05:46:21;461.17;;;149.73;;
3949;SDS011;53057;50.988;6.314;2023-02-23T05:48:50;485.87;;;156.80;;
3949;SDS011;53057;50.988;6.314;2023-02-23T05:51:17;508.90;;;153.80;;
3949;SDS011;53057;50.988;6.314;2023-02-23T05:53:44;418.57;;;142.57;;
3949;SDS011;53057;50.988;6.314;2023-02-23T05:56:13;405.63;;;136.10;;
3949;SDS011;53057;50.988;6.314;2023-02-23T05:58:46;399.70;;;136.87;;
3949;SDS011;53057;50.988;6.314;2023-02-23T06:01:13;527.13;;;157.97;;
3949;SDS011;53057;50.988;6.314;2023-02-23T06:03:39;426.00;;;137.80;;
3949;SDS011;53057;50.988;6.314;2023-02-23T06:06:06;382.03;;;133.23;;
3949;SDS011;53057;50.988;6.314;2023-02-23T06:08:33;409.93;;;134.77;;
3949;SDS011;53057;50.988;6.314;2023-02-23T06:10:59;379.27;;;127.83;;
3949;SDS011;53057;50.988;6.314;2023-02-23T06:13:26;394.33;;;131.97;;
3949;SDS011;53057;50.988;6.314;2023-02-23T06:15:53;313.50;;;125.23;;
3949;SDS011;53057;50.988;6.314;2023-02-23T06:18:20;346.37;;;123.60;;
3949;SDS011;53057;50.988;6.314;2023-02-23T06:20:47;327.53;;;123.93;;
3949;SDS011;53057;50.988;6.314;2023-02-23T06:23:14;331.53;;;117.20;;
3949;SDS011;53057;50.988;6.314;2023-02-23T06:25:41;366.77;;;123.97;;
3949;SDS011;53057;50.988;6.314;2023-02-23T06:28:08;445.13;;;138.90;;
3949;SDS011;53057;50.988;6.314;2023-02-23T06:30:36;432.87;;;140.10;;
3949;SDS011;53057;50.988;6.314;2023-02-23T06:33:03;396.57;;;128.47;;
3949;SDS011;53057;50.988;6.314;2023-02-23T06:35:30;342.30;;;120.17;;
3949;SDS011;53057;50.988;6.314;2023-02-23T06:37:58;405.20;;;136.27;;
3949;SDS011;53057;50.988;6.314;2023-02-23T06:40:24;410.07;;;130.07;;
3949;SDS011;53057;50.988;6.314;2023-02-23T06:42:51;329.97;;;121.83;;
3949;SDS011;53057;50.988;6.314;2023-02-23T06:45:18;363.63;;;125.67;;
3949;SDS011;53057;50.988;6.314;2023-02-23T06:47:45;418.63;;;132.47;;
3949;SDS011;53057;50.988;6.314;2023-02-23T06:50:12;404.97;;;133.43;;
3949;SDS011;53057;50.988;6.314;2023-02-23T06:52:39;363.27;;;124.77;;
3949;SDS011;53057;50.988;6.314;2023-02-23T06:55:06;443.77;;;142.57;;
3949;SDS011;53057;50.988;6.314;2023-02-23T06:57:33;343.90;;;122.00;;
3949;SDS011;53057;50.988;6.314;2023-02-23T07:00:00;320.60;;;117.00;;
3949;SDS011;53057;50.988;6.314;2023-02-23T07:02:27;359.00;;;124.07;;
3949;SDS011;53057;50.988;6.314;2023-02-23T07:04:53;353.80;;;124.20;;
3949;SDS011;53057;50.988;6.314;2023-02-23T07:07:20;346.43;;;121.37;;
3949;SDS011;53057;50.988;6.314;2023-02-23T07:09:47;334.43;;;121.90;;
3949;SDS011;53057;50.988;6.314;2023-02-23T07:12:14;368.13;;;125.83;;
3949;SDS011;53057;50.988;6.314;2023-02-23T07:14:40;358.90;;;123.27;;
3949;SDS011;53057;50.988;6.314;2023-02-23T07:17:07;436.27;;;139.27;;
3949;SDS011;53057;50.988;6.314;2023-02-23T07:19:36;433.30;;;141.40;;
3949;SDS011;53057;50.988;6.314;2023-02-23T07:22:02;417.93;;;135.80;;
3949;SDS011;53057;50.988;6.314;2023-02-23T07:24:30;378.00;;;125.57;;
3949;SDS011;53057;50.988;6.314;2023-02-23T07:26:56;455.93;;;147.93;;
3949;SDS011;53057;50.988;6.314;2023-02-23T07:29:23;396.73;;;134.37;;
3949;SDS011;53057;50.988;6.314;2023-02-23T07:31:50;468.83;;;141.50;;
3949;SDS011;53057;50.988;6.314;2023-02-23T07:34:16;439.50;;;136.07;;
3949;SDS011;53057;50.988;6.314;2023-02-23T07:36:43;411.20;;;127.83;;
3949;SDS011;53057;50.988;6.314;2023-02-23T07:39:09;472.80;;;145.00;;
3949;SDS011;53057;50.988;6.314;2023-02-23T07:41:36;426.17;;;132.40;;
3949;SDS011;53057;50.988;6.314;2023-02-23T07:44:11;454.47;;;133.67;;
3949;SDS011;53057;50.988;6.314;2023-02-23T07:46:37;442.17;;;130.83;;
3949;SDS011;53057;50.988;6.314;2023-02-23T07:49:04;434.73;;;135.73;;
3949;SDS011;53057;50.988;6.314;2023-02-23T07:51:31;385.73;;;122.50;;
3949;SDS011;53057;50.988;6.314;2023-02-23T07:54:00;422.17;;;125.43;;
3949;SDS011;53057;50.988;6.314;2023-02-23T07:56:27;425.43;;;127.87;;
3949;SDS011;53057;50.988;6.314;2023-02-23T07:58:54;482.90;;;143.60;;
3949;SDS011;53057;50.988;6.314;2023-02-23T08:01:20;556.37;;;151.00;;
3949;SDS011;53057;50.988;6.314;2023-02-23T08:03:47;508.33;;;146.43;;
3949;SDS011;53057;50.988;6.314;2023-02-23T08:06:15;523.50;;;148.50;;
3949;SDS011;53057;50.988;6.314;2023-02-23T08:08:42;547.80;;;147.40;;
3949;SDS011;53057;50.988;6.314;2023-02-23T08:11:09;368.00;;;117.37;;
3949;SDS011;53057;50.988;6.314;2023-02-23T08:13:35;418.23;;;127.87;;
3949;SDS011;53057;50.988;6.314;2023-02-23T08:16:02;522.63;;;143.13;;
3949;SDS011;53057;50.988;6.314;2023-02-23T08:18:29;473.33;;;136.53;;
3949;SDS011;53057;50.988;6.314;2023-02-23T08:20:56;440.50;;;126.97;;
3949;SDS011;53057;50.988;6.314;2023-02-23T08:23:23;313.37;;;104.30;;
3949;SDS011;53057;50.988;6.314;2023-02-23T08:25:50;383.60;;;110.27;;
3949;SDS011;53057;50.988;6.314;2023-02-23T08:28:16;274.00;;;94.77;;
3949;SDS011;53057;50.988;6.314;2023-02-23T08:30:43;322.70;;;103.30;;
3949;SDS011;53057;50.988;6.314;2023-02-23T08:33:09;343.63;;;108.67;;
3949;SDS011;53057;50.988;6.314;2023-02-23T08:35:36;401.33;;;114.70;;
3949;SDS011;53057;50.988;6.314;2023-02-23T08:38:02;344.37;;;110.83;;
3949;SDS011;53057;50.988;6.314;2023-02-23T08:40:29;410.27;;;118.67;;
3949;SDS011;53057;50.988;6.314;2023-02-23T08:42:56;336.97;;;112.97;;
3949;SDS011;53057;50.988;6.314;2023-02-23T08:45:23;385.20;;;111.70;;
3949;SDS011;53057;50.988;6.314;2023-02-23T08:47:49;443.40;;;126.67;;
3949;SDS011;53057;50.988;6.314;2023-02-23T08:50:16;481.87;;;132.90;;
3949;SDS011;53057;50.988;6.314;2023-02-23T08:52:43;396.67;;;115.70;;
3949;SDS011;53057;50.988;6.314;2023-02-23T08:55:10;339.57;;;101.00;;
3949;SDS011;53057;50.988;6.314;2023-02-23T08:57:37;373.57;;;109.47;;
3949;SDS011;53057;50.988;6.314;2023-02-23T09:00:04;346.47;;;105.13;;
3949;SDS011;53057;50.988;6.314;2023-02-23T09:02:39;314.27;;;99.27;;
3949;SDS011;53057;50.988;6.314;2023-02-23T09:05:07;358.33;;;107.80;;
3949;SDS011;53057;50.988;6.314;2023-02-23T09:07:34;333.87;;;102.73;;
3949;SDS011;53057;50.988;6.314;2023-02-23T09:10:01;360.80;;;108.37;;
3949;SDS011;53057;50.988;6.314;2023-02-23T09:12:27;385.80;;;110.57;;
3949;SDS011;53057;50.988;6.314;2023-02-23T09:14:54;272.40;;;94.07;;
3949;SDS011;53057;50.988;6.314;2023-02-23T09:17:21;283.97;;;91.50;;
3949;SDS011;53057;50.988;6.314;2023-02-23T09:19:48;344.17;;;104.73;;
3949;SDS011;53057;50.988;6.314;2023-02-23T09:22:15;254.00;;;91.03;;
3949;SDS011;53057;50.988;6.314;2023-02-23T09:24:43;258.60;;;84.77;;
3949;SDS011;53057;50.988;6.314;2023-02-23T09:27:10;236.63;;;81.77;;
3949;SDS011;53057;50.988;6.314;2023-02-23T09:29:40;223.17;;;82.40;;
3949;SDS011;53057;50.988;6.314;2023-02-23T09:32:08;237.73;;;84.07;;
3949;SDS011;53057;50.988;6.314;2023-02-23T09:34:34;225.33;;;77.53;;
3949;SDS011;53057;50.988;6.314;2023-02-23T09:37:03;228.90;;;80.07;;
3949;SDS011;53057;50.988;6.314;2023-02-23T09:39:30;212.37;;;75.03;;
3949;SDS011;53057;50.988;6.314;2023-02-23T09:44:42;176.37;;;65.97;;
3949;SDS011;53057;50.988;6.314;2023-02-23T09:49:37;180.07;;;67.10;;
3949;SDS011;53057;50.988;6.314;2023-02-23T09:52:05;184.60;;;69.47;;
3949;SDS011;53057;50.988;6.314;2023-02-23T09:54:34;210.67;;;70.67;;
3949;SDS011;53057;50.988;6.314;2023-02-23T09:57:03;182.03;;;66.00;;
3949;SDS011;53057;50.988;6.314;2023-02-23T09:59:31;211.40;;;70.60;;
3949;SDS011;53057;50.988;6.314;2023-02-23T10:02:04;205.30;;;73.00;;
3949;SDS011;53057;50.988;6.314;2023-02-23T10:04:39;195.00;;;68.97;;
3949;SDS011;53057;50.988;6.314;2023-02-23T10:08:11;145.57;;;54.40;;
3949;SDS011;53057;50.988;6.314;2023-02-23T10:13:03;186.33;;;69.67;;
3949;SDS011;53057;50.988;6.314;2023-02-23T10:15:35;264.60;;;80.83;;
3949;SDS011;53057;50.988;6.314;2023-02-23T10:18:11;285.13;;;90.80;;
3949;SDS011;53057;50.988;6.314;2023-02-23T10:23:13;304.13;;;88.63;;
3949;SDS011;53057;50.988;6.314;2023-02-23T10:25:42;304.47;;;90.37;;
3949;SDS011;53057;50.988;6.314;2023-02-23T10:28:14;306.20;;;86.90;;
3949;SDS011;53057;50.988;6.314;2023-02-23T10:30:41;338.27;;;90.47;;
3949;SDS011;53057;50.988;6.314;2023-02-23T10:35:47;426.47;;;104.03;;
3949;SDS011;53057;50.988;6.314;2023-02-23T10:38:17;334.67;;;89.50;;
3949;SDS011;53057;50.988;6.314;2023-02-23T10:40:45;341.83;;;84.70;;
3949;SDS011;53057;50.988;6.314;2023-02-23T10:43:12;333.17;;;90.10;;
3949;SDS011;53057;50.988;6.314;2023-02-23T10:45:45;367.53;;;89.20;;
3949;SDS011;53057;50.988;6.314;2023-02-23T10:48:23;392.67;;;90.30;;
3949;SDS011;53057;50.988;6.314;2023-02-23T10:50:51;321.80;;;88.17;;
3949;SDS011;53057;50.988;6.314;2023-02-23T10:53:22;270.93;;;86.83;;
3949;SDS011;53057;50.988;6.314;2023-02-23T10:58:28;327.97;;;89.70;;
3949;SDS011;53057;50.988;6.314;2023-02-23T11:00:56;319.10;;;89.30;;
3949;SDS011;53057;50.988;6.314;2023-02-23T11:03:24;291.57;;;84.43;;
3949;SDS011;53057;50.988;6.314;2023-02-23T11:05:53;265.83;;;81.13;;
3949;SDS011;53057;50.988;6.314;2023-02-23T11:08:24;251.87;;;73.30;;
3949;SDS011;53057;50.988;6.314;2023-02-23T11:13:21;280.50;;;83.17;;
3949;SDS011;53057;50.988;6.314;2023-02-23T11:15:48;266.97;;;80.63;;
3949;SDS011;53057;50.988;6.314;2023-02-23T11:18:23;229.00;;;74.50;;
3949;SDS011;53057;50.988;6.314;2023-02-23T11:20:50;242.87;;;77.57;;
3949;SDS011;53057;50.988;6.314;2023-02-23T11:23:20;254.67;;;81.63;;
3949;SDS011;53057;50.988;6.314;2023-02-23T11:25:47;243.63;;;79.37;;
3949;SDS011;53057;50.988;6.314;2023-02-23T11:28:20;250.80;;;76.07;;
3949;SDS011;53057;50.988;6.314;2023-02-23T11:30:48;226.23;;;73.00;;
3949;SDS011;53057;50.988;6.314;2023-02-23T11:33:15;191.00;;;71.17;;
3949;SDS011;53057;50.988;6.314;2023-02-23T11:35:42;190.93;;;70.17;;
3949;SDS011;53057;50.988;6.314;2023-02-23T11:38:24;204.33;;;69.17;;
3949;SDS011;53057;50.988;6.314;2023-02-23T11:41:00;198.60;;;69.40;;
3949;SDS011;53057;50.988;6.314;2023-02-23T11:43:27;196.73;;;65.67;;
3949;SDS011;53057;50.988;6.314;2023-02-23T11:45:54;177.87;;;62.57;;
3949;SDS011;53057;50.988;6.314;2023-02-23T11:48:37;169.70;;;59.27;;
3949;SDS011;53057;50.988;6.314;2023-02-23T11:51:08;174.60;;;60.60;;
3949;SDS011;53057;50.988;6.314;2023-02-23T11:53:36;168.80;;;62.77;;
3949;SDS011;53057;50.988;6.314;2023-02-23T11:56:03;174.07;;;60.87;;
3949;SDS011;53057;50.988;6.314;2023-02-23T11:58:46;176.10;;;61.53;;
3949;SDS011;53057;50.988;6.314;2023-02-23T12:01:15;195.27;;;66.83;;
3949;SDS011;53057;50.988;6.314;2023-02-23T12:03:44;205.90;;;68.30;;
3949;SDS011;53057;50.988;6.314;2023-02-23T12:09:00;160.17;;;61.60;;
3949;SDS011;53057;50.988;6.314;2023-02-23T12:11:30;174.13;;;67.73;;
3949;SDS011;53057;50.988;6.314;2023-02-23T12:14:01;150.03;;;56.40;;
3949;SDS011;53057;50.988;6.314;2023-02-23T12:16:31;157.63;;;58.33;;
3949;SDS011;53057;50.988;6.314;2023-02-23T12:19:11;130.30;;;49.90;;
3949;SDS011;53057;50.988;6.314;2023-02-23T12:21:46;138.20;;;49.53;;
3949;SDS011;53057;50.988;6.314;2023-02-23T12:24:15;114.50;;;47.93;;
3949;SDS011;53057;50.988;6.314;2023-02-23T12:26:49;130.50;;;50.27;;
3949;SDS011;53057;50.988;6.314;2023-02-23T12:29:18;92.80;;;41.50;;
3949;SDS011;53057;50.988;6.314;2023-02-23T12:31:54;77.17;;;35.70;;
3949;SDS011;53057;50.988;6.314;2023-02-23T12:34:25;77.50;;;32.80;;
3949;SDS011;53057;50.988;6.314;2023-02-23T12:37:00;72.30;;;32.83;;
3949;SDS011;53057;50.988;6.314;2023-02-23T12:39:37;71.27;;;30.70;;
3949;SDS011;53057;50.988;6.314;2023-02-23T12:42:14;69.70;;;31.40;;
3949;SDS011;53057;50.988;6.314;2023-02-23T12:44:45;61.67;;;31.73;;
3949;SDS011;53057;50.988;6.314;2023-02-23T12:47:25;76.07;;;35.67;;
3949;SDS011;53057;50.988;6.314;2023-02-23T12:50:04;68.63;;;30.90;;
3949;SDS011;53057;50.988;6.314;2023-02-23T12:52:41;64.10;;;31.33;;
3949;SDS011;53057;50.988;6.314;2023-02-23T12:55:10;57.77;;;28.03;;
3949;SDS011;53057;50.988;6.314;2023-02-23T12:57:51;56.67;;;30.87;;
3949;SDS011;53057;50.988;6.314;2023-02-23T13:03:03;53.50;;;24.80;;
3949;SDS011;53057;50.988;6.314;2023-02-23T13:05:40;62.63;;;30.63;;
3949;SDS011;53057;50.988;6.314;2023-02-23T13:11:01;54.87;;;27.40;;
3949;SDS011;53057;50.988;6.314;2023-02-23T13:13:33;54.63;;;29.03;;
3949;SDS011;53057;50.988;6.314;2023-02-23T13:29:41;53.80;;;26.50;;
3949;SDS011;53057;50.988;6.314;2023-02-23T13:32:09;54.70;;;27.20;;
3949;SDS011;53057;50.988;6.314;2023-02-23T13:37:11;52.87;;;26.00;;
3949;SDS011;53057;50.988;6.314;2023-02-23T13:42:44;52.50;;;27.37;;
3949;SDS011;53057;50.988;6.314;2023-02-23T13:45:25;53.10;;;28.57;;
3949;SDS011;53057;50.988;6.314;2023-02-23T13:52:53;49.77;;;27.83;;
3949;SDS011;53057;50.988;6.314;2023-02-23T13:57:51;54.80;;;25.33;;
3949;SDS011;53057;50.988;6.314;2023-02-23T14:00:19;48.27;;;26.90;;
3949;SDS011;53057;50.988;6.314;2023-02-23T14:02:46;50.73;;;26.93;;
3949;SDS011;53057;50.988;6.314;2023-02-23T14:05:17;53.17;;;27.20;;
3949;SDS011;53057;50.988;6.314;2023-02-23T14:07:50;50.23;;;26.20;;
3949;SDS011;53057;50.988;6.314;2023-02-23T14:10:21;48.33;;;25.97;;
3949;SDS011;53057;50.988;6.314;2023-02-23T14:18:01;58.23;;;30.87;;
3949;SDS011;53057;50.988;6.314;2023-02-23T14:28:29;50.20;;;24.57;;
3949;SDS011;53057;50.988;6.314;2023-02-23T14:31:00;57.77;;;28.10;;
3949;SDS011;53057;50.988;6.314;2023-02-23T14:41:22;53.57;;;27.60;;
3949;SDS011;53057;50.988;6.314;2023-02-23T14:43:53;55.80;;;27.70;;
3949;SDS011;53057;50.988;6.314;2023-02-23T14:46:21;56.83;;;27.77;;
3949;SDS011;53057;50.988;6.314;2023-02-23T14:51:26;52.40;;;25.80;;
3949;SDS011;53057;50.988;6.314;2023-02-23T14:53:57;59.27;;;28.90;;
3949;SDS011;53057;50.988;6.314;2023-02-23T14:56:23;50.27;;;27.80;;
3949;SDS011;53057;50.988;6.314;2023-02-23T14:59:07;57.00;;;24.90;;
3949;SDS011;53057;50.988;6.314;2023-02-23T15:01:38;48.00;;;24.50;;
3949;SDS011;53057;50.988;6.314;2023-02-23T15:04:12;57.70;;;26.57;;
3949;SDS011;53057;50.988;6.314;2023-02-23T15:06:39;57.90;;;26.20;;
3949;SDS011;53057;50.988;6.314;2023-02-23T15:09:09;55.97;;;27.30;;
3949;SDS011;53057;50.988;6.314;2023-02-23T15:11:40;60.10;;;27.57;;
3949;SDS011;53057;50.988;6.314;2023-02-23T15:14:10;57.83;;;27.67;;
3949;SDS011;53057;50.988;6.314;2023-02-23T15:16:53;54.10;;;27.30;;
3949;SDS011;53057;50.988;6.314;2023-02-23T15:19:30;58.60;;;28.53;;
3949;SDS011;53057;50.988;6.314;2023-02-23T15:21:58;57.20;;;28.07;;
3949;SDS011;53057;50.988;6.314;2023-02-23T15:24:26;55.97;;;26.63;;
3949;SDS011;53057;50.988;6.314;2023-02-23T15:26:54;58.87;;;29.03;;
3949;SDS011;53057;50.988;6.314;2023-02-23T15:29:22;55.63;;;27.43;;
3949;SDS011;53057;50.988;6.314;2023-02-23T15:31:50;57.87;;;28.60;;
3949;SDS011;53057;50.988;6.314;2023-02-23T15:34:20;54.77;;;29.30;;
3949;SDS011;53057;50.988;6.314;2023-02-23T15:36:56;54.00;;;28.60;;
3949;SDS011;53057;50.988;6.314;2023-02-23T15:39:34;66.23;;;29.30;;
3949;SDS011;53057;50.988;6.314;2023-02-23T15:42:03;61.53;;;29.97;;
3949;SDS011;53057;50.988;6.314;2023-02-23T15:44:31;71.10;;;35.00;;
3949;SDS011;53057;50.988;6.314;2023-02-23T15:47:16;83.50;;;36.70;;
3949;SDS011;53057;50.988;6.314;2023-02-23T15:49:44;84.40;;;38.40;;
3949;SDS011;53057;50.988;6.314;2023-02-23T15:52:15;75.60;;;39.00;;
3949;SDS011;53057;50.988;6.314;2023-02-23T15:57:20;71.20;;;37.70;;
3949;SDS011;53057;50.988;6.314;2023-02-23T15:59:48;72.03;;;35.77;;
3949;SDS011;53057;50.988;6.314;2023-02-23T16:02:16;70.90;;;32.80;;
3949;SDS011;53057;50.988;6.314;2023-02-23T16:04:45;75.33;;;35.10;;
3949;SDS011;53057;50.988;6.314;2023-02-23T16:07:20;77.90;;;35.70;;
3949;SDS011;53057;50.988;6.314;2023-02-23T16:14:48;72.30;;;33.70;;
3949;SDS011;53057;50.988;6.314;2023-02-23T16:19:46;73.77;;;35.93;;
3949;SDS011;53057;50.988;6.314;2023-02-23T16:22:18;73.57;;;37.60;;
3949;SDS011;53057;50.988;6.314;2023-02-23T16:24:47;77.13;;;36.77;;
3949;SDS011;53057;50.988;6.314;2023-02-23T16:27:16;74.10;;;38.10;;
3949;SDS011;53057;50.988;6.314;2023-02-23T16:29:42;74.63;;;37.77;;
3949;SDS011;53057;50.988;6.314;2023-02-23T16:32:19;79.73;;;35.20;;
3949;SDS011;53057;50.988;6.314;2023-02-23T16:34:47;66.60;;;35.93;;
3949;SDS011;53057;50.988;6.314;2023-02-23T16:37:19;109.10;;;51.73;;
3949;SDS011;53057;50.988;6.314;2023-02-23T16:39:51;85.40;;;38.43;;
3949;SDS011;53057;50.988;6.314;2023-02-23T16:42:22;196.60;;;110.90;;
3949;SDS011;53057;50.988;6.314;2023-02-23T16:44:49;174.47;;;95.70;;